Time;durP1;ratioP1;P1;durP2;ratioP2;P2;SDS_P1;SDS_P2;PMS_P1;PMS_P2;Temp;Humidity;BMP_temperature;BMP_pressure;BME280_temperature;BME280_humidity;BME280_pressure;Samples;Min_cycle;Max_cycle;Signal;HPM_P1;HPM_P2
2022/11/19 00:01:09;;;;;;;19.67;12.50;;;;;;;-0.54;79.23;100135.49;1761042;81;21027;-76
2022/11/19 00:03:38;;;;;;;27.17;13.10;;;;;;;-0.55;79.44;100134.64;1750417;81;20981;-76
2022/11/19 00:06:15;;;;;;;21.37;12.77;;;;;;;-0.57;79.30;100137.62;1764934;81;21031;-77
2022/11/19 00:08:42;;;;;;;22.20;12.53;;;;;;;-0.61;79.48;100138.88;1765347;80;21073;-75
2022/11/19 00:12:53;;;;;;;23.07;12.83;;;;;;;-0.56;79.87;100139.77;1754872;80;21051;-76
2022/11/19 00:13:44;;;;;;;19.23;11.87;;;;;;;-0.55;79.81;100140.22;1762717;81;21028;-75
2022/11/19 00:16:13;;;;;;;19.73;11.87;;;;;;;-0.55;79.69;100141.07;1761684;81;20992;-75
2022/11/19 00:18:41;;;;;;;22.93;13.07;;;;;;;-0.62;79.39;100147.03;1753143;81;21506;-76
2022/11/19 00:21:10;;;;;;;22.33;12.40;;;;;;;-0.65;79.60;100147.03;1753226;81;21277;-75
2022/11/19 00:23:39;;;;;;;22.03;12.67;;;;;;;-0.68;79.45;100147.02;1753288;81;21063;-76
2022/11/19 00:26:12;;;;;;;19.93;12.47;;;;;;;-0.73;79.53;100140.98;1753209;81;21327;-76
2022/11/19 00:28:41;;;;;;;20.97;13.03;;;;;;;-0.74;79.77;100151.71;1753163;81;21009;-76
2022/11/19 00:31:12;;;;;;;19.03;12.07;;;;;;;-0.75;79.69;100146.14;1753153;81;21020;-75
2022/11/19 00:33:41;;;;;;;22.57;12.80;;;;;;;-0.79;79.62;100143.53;1753136;81;21946;-75
2022/11/19 00:36:12;;;;;;;19.77;12.43;;;;;;;-0.81;79.67;100147.80;1752984;81;21024;-75
2022/11/19 00:38:39;;;;;;;19.13;11.90;;;;;;;-0.83;79.63;100145.23;1753104;81;21020;-76
2022/11/19 00:41:06;;;;;;;20.20;12.30;;;;;;;-0.87;79.61;100143.48;1753490;81;21455;-75
2022/11/19 00:43:46;;;;;;;19.00;12.00;;;;;;;-0.93;79.74;100147.32;1753069;81;21031;-76
2022/11/19 00:46:30;;;;;;;21.40;12.43;;;;;;;-0.94;79.86;100141.75;1753839;81;21088;-76
2022/11/19 00:48:59;;;;;;;21.03;12.57;;;;;;;-0.96;79.81;100146.02;1753162;81;21498;-75
2022/11/19 00:51:29;;;;;;;20.60;11.63;;;;;;;-0.97;80.14;100147.73;1753504;81;21020;-76
2022/11/19 00:53:56;;;;;;;18.85;12.20;;;;;;;-0.96;80.14;100144.30;1753241;81;21561;-77
2022/11/19 00:56:26;;;;;;;21.17;12.77;;;;;;;-0.98;80.01;100150.29;1753474;81;21035;-75
2022/11/19 00:58:54;;;;;;;13.58;9.25;;;;;;;-0.98;80.25;100155.43;1753309;81;21467;-75
2022/11/19 01:01:23;;;;;;;22.30;12.30;;;;;;;-0.97;80.31;100158.42;1753266;81;22032;-75
2022/11/19 01:03:51;;;;;;;21.83;13.30;;;;;;;-0.99;80.00;100170.45;1753103;81;21020;-75
2022/11/19 01:06:21;;;;;;;22.83;13.30;;;;;;;-1.07;79.91;100172.11;1753394;81;21048;-74
2022/11/19 01:08:49;;;;;;;23.12;12.33;;;;;;;-1.10;80.05;100165.23;1753305;81;21463;-75
2022/11/19 01:11:21;;;;;;;22.97;13.17;;;;;;;-1.12;80.12;100170.34;1753473;81;21089;-75
2022/11/19 01:13:49;;;;;;;20.20;12.70;;;;;;;-1.17;80.15;100173.31;1753133;81;21020;-77
2022/11/19 01:16:23;;;;;;;18.37;11.80;;;;;;;-1.20;80.22;100168.15;1755629;79;20989;-75
2022/11/19 01:18:51;;;;;;;21.83;12.97;;;;;;;-1.23;80.13;100174.98;1752825;81;20974;-75
2022/11/19 01:21:22;;;;;;;21.13;12.50;;;;;;;-1.29;80.16;100183.95;1756479;79;21481;-75
2022/11/19 01:23:49;;;;;;;21.50;12.23;;;;;;;-1.34;80.16;100182.62;1745537;81;28433;-77
2022/11/19 01:26:17;;;;;;;22.50;12.20;;;;;;;-1.41;80.14;100188.15;1765384;81;21461;-75
2022/11/19 01:28:45;;;;;;;18.70;12.27;;;;;;;-1.46;80.21;100186.39;1754506;79;21024;-75
2022/11/19 01:31:22;;;;;;;20.73;12.30;;;;;;;-1.48;80.36;100185.51;1747103;79;21049;-75
2022/11/19 01:33:49;;;;;;;22.30;12.40;;;;;;;-1.52;80.35;100195.31;1764686;81;21777;-74
2022/11/19 01:36:26;;;;;;;23.73;13.07;;;;;;;-1.55;80.45;100199.14;1747228;79;21136;-74
2022/11/19 01:38:55;;;;;;;21.83;13.40;;;;;;;-1.60;80.34;100199.98;1756431;79;21061;-75
2022/11/19 01:41:31;;;;;;;21.87;12.63;;;;;;;-1.61;80.80;100211.12;1743561;81;21016;-75
2022/11/19 01:44:05;;;;;;;22.60;13.23;;;;;;;-1.60;80.90;100212.83;1739556;81;21339;-75
2022/11/19 01:46:37;;;;;;;22.80;13.47;;;;;;;-1.59;80.71;100219.68;1759355;81;21035;-79
2022/11/19 01:49:11;;;;;;;22.80;13.30;;;;;;;-1.60;80.77;100212.83;1754871;80;21111;-75
2022/11/19 01:51:45;;;;;;;23.20;14.00;;;;;;;-1.60;81.01;100217.11;1755996;79;20993;-75
2022/11/19 01:54:37;;;;;;;27.57;15.43;;;;;;;-1.59;81.30;100204.26;1756159;79;21522;-75
2022/11/19 01:57:08;;;;;;;31.60;16.50;;;;;;;-1.58;81.24;100208.57;1761373;81;21011;-75
2022/11/19 01:59:37;;;;;;;31.70;16.33;;;;;;;-1.60;81.28;100215.40;1765327;81;21086;-76
2022/11/19 02:02:05;;;;;;;32.83;16.23;;;;;;;-1.58;81.30;100213.71;1765097;79;22062;-75
2022/11/19 02:04:33;;;;;;;25.63;14.87;;;;;;;-1.61;81.02;100212.80;1744111;81;21000;-76
2022/11/19 02:07:01;;;;;;;28.87;16.60;;;;;;;-1.67;80.96;100213.60;1765197;80;21075;-76
2022/11/19 02:09:29;;;;;;;29.30;16.37;;;;;;;-1.74;80.83;100219.55;1765224;81;20976;-76
2022/11/19 02:12:23;;;;;;;32.07;17.83;;;;;;;-1.83;80.65;100216.47;1747940;79;21463;-76
2022/11/19 02:15:21;;;;;;;34.13;17.87;;;;;;;-1.91;80.49;100215.92;1763347;81;21130;-76
2022/11/19 02:17:56;;;;;;;25.63;15.33;;;;;;;-2.04;80.42;100223.94;1763933;80;20945;-78
2022/11/19 02:20:34;;;;;;;22.33;14.03;;;;;;;-2.14;80.39;100230.66;1771346;81;21524;-77
2022/11/19 02:23:23;;;;;;;26.40;14.40;;;;;;;-2.20;80.58;100232.30;1772106;80;20999;-76
2022/11/19 02:26:33;;;;;;;21.57;13.80;;;;;;;-2.22;80.77;100235.27;1771915;80;20992;-77
2022/11/19 02:29:32;;;;;;;22.30;12.93;;;;;;;-2.27;80.90;100239.08;1774234;80;21131;-77
2022/11/19 02:32:04;;;;;;;25.87;14.43;;;;;;;-2.32;80.88;100239.44;1773808;80;21439;-76
2022/11/19 02:34:54;;;;;;;27.03;14.13;;;;;;;-2.35;81.18;100237.69;1773799;80;21569;-76
2022/11/19 02:37:27;;;;;;;25.27;13.90;;;;;;;-2.37;81.25;100239.37;1720988;80;21089;-76
2022/11/19 02:40:08;;;;;;;22.03;13.50;;;;;;;-2.37;81.19;100242.36;1753491;79;21001;-76
2022/11/19 02:42:49;;;;;;;23.10;13.87;;;;;;;-2.40;81.16;100242.33;1754702;80;21132;-77
2022/11/19 02:45:34;;;;;;;24.57;13.57;;;;;;;-2.43;81.19;100243.14;1763338;80;21047;-76
2022/11/19 02:48:09;;;;;;;23.77;13.97;;;;;;;-2.44;81.24;100240.55;1773901;80;21094;-76
2022/11/19 02:50:47;;;;;;;25.43;14.77;;;;;;;-2.50;81.06;100242.19;1774258;80;21541;-76
2022/11/19 02:53:14;;;;;;;23.93;14.27;;;;;;;-2.55;81.06;100241.69;1774069;80;21008;-76
2022/11/19 02:56:09;;;;;;;22.37;13.33;;;;;;;-2.60;81.11;100241.64;1774093;80;21063;-76
2022/11/19 03:06:39;;;;;;;25.13;15.13;;;;;;;-2.79;81.12;100240.94;1765119;80;21485;-75
2022/11/19 03:09:06;;;;;;;27.30;15.17;;;;;;;-2.83;81.18;100245.14;1771615;80;21212;-76
2022/11/19 03:11:32;;;;;;;24.10;14.77;;;;;;;-2.90;81.11;100245.91;1756727;81;20972;-76
2022/11/19 03:17:24;;;;;;;25.05;14.40;;;;;;;-2.97;81.20;100251.77;1758930;80;20992;-76
2022/11/19 03:20:21;;;;;;;24.10;13.40;;;;;;;-3.04;81.23;100250.83;1743122;81;21021;-76
2022/11/19 03:22:59;;;;;;;23.03;13.43;;;;;;;-3.10;81.08;100256.26;1741634;81;21128;-75
2022/11/19 03:25:30;;;;;;;24.07;13.57;;;;;;;-3.17;81.26;100257.87;1753084;81;21051;-76
2022/11/19 03:28:02;;;;;;;22.90;13.73;;;;;;;-3.20;81.23;100259.11;1751484;81;21067;-77
2022/11/19 03:30:30;;;;;;;25.17;13.60;;;;;;;-3.25;81.32;100268.41;1753181;81;21211;-76
2022/11/19 03:33:02;;;;;;;21.37;12.13;;;;;;;-3.32;81.10;100266.61;1749640;81;21078;-75
2022/11/19 03:35:37;;;;;;;25.13;13.40;;;;;;;-3.36;81.37;100267.81;1753166;81;21122;-76
2022/11/19 03:38:08;;;;;;;23.10;13.40;;;;;;;-3.34;81.62;100270.41;1735129;81;21468;-75
2022/11/19 03:40:38;;;;;;;26.60;13.10;;;;;;;-3.35;81.78;100269.98;1746845;81;21074;-76
2022/11/19 03:43:08;;;;;;;24.30;13.40;;;;;;;-3.38;81.74;100269.50;1757562;81;21463;-76
2022/11/19 03:45:40;;;;;;;24.33;12.13;;;;;;;-3.40;81.86;100270.31;1754052;81;21086;-75
2022/11/19 03:48:09;;;;;;;23.60;13.60;;;;;;;-3.42;81.88;100265.57;1753733;80;21121;-75
2022/11/19 03:50:52;;;;;;;24.93;13.67;;;;;;;-3.42;82.10;100281.80;1743314;81;21049;-76
2022/11/19 03:53:20;;;;;;;25.23;14.07;;;;;;;-3.41;82.09;100282.66;1747934;81;21018;-76
2022/11/19 03:55:55;;;;;;;23.83;13.37;;;;;;;-3.47;81.91;100278.29;1746118;81;21016;-77
2022/11/19 03:58:24;;;;;;;23.43;13.33;;;;;;;-3.49;81.99;100279.98;1747591;81;20987;-75
2022/11/19 04:00:52;;;;;;;24.70;13.90;;;;;;;-3.51;81.97;100281.66;1753197;81;21486;-76
2022/11/19 04:03:19;;;;;;;23.97;13.87;;;;;;;-3.56;81.91;100281.13;1754445;81;21030;-77
2022/11/19 04:05:46;;;;;;;23.37;13.63;;;;;;;-3.63;81.90;100281.02;1758837;81;21012;-75
2022/11/19 04:08:13;;;;;;;25.27;13.43;;;;;;;-3.69;82.00;100288.56;1756211;80;21015;-75
2022/11/19 04:10:40;;;;;;;24.80;13.87;;;;;;;-3.72;82.09;100291.49;1753150;81;21107;-75
2022/11/19 04:13:07;;;;;;;23.93;13.83;;;;;;;-3.75;82.24;100296.56;1753143;81;22033;-75
2022/11/19 04:15:34;;;;;;;24.37;13.50;;;;;;;-3.78;82.40;100296.08;1753039;81;21042;-75
2022/11/19 04:18:01;;;;;;;25.10;13.30;;;;;;;-3.79;82.47;100296.92;1757358;81;21016;-75
2022/11/19 04:20:28;;;;;;;24.47;13.50;;;;;;;-3.82;82.33;100297.73;1764495;78;21033;-75
2022/11/19 04:22:55;;;;;;;26.50;13.77;;;;;;;-3.83;82.38;100297.27;1764754;79;21023;-75
2022/11/19 04:25:22;;;;;;;24.77;14.60;;;;;;;-3.85;82.29;100293.83;1788031;79;21108;-76
2022/11/19 04:27:50;;;;;;;28.23;16.17;;;;;;;-3.85;82.28;100296.39;1780110;80;21070;-74
2022/11/19 04:30:18;;;;;;;32.00;15.83;;;;;;;-3.88;82.22;100298.90;1782908;79;21077;-78
2022/11/19 04:32:46;;;;;;;23.60;14.13;;;;;;;-3.88;82.46;100298.01;1783067;79;21456;-78
2022/11/19 04:35:13;;;;;;;24.47;13.73;;;;;;;-3.88;82.42;100303.12;1779311;79;21081;-76
2022/11/19 04:37:40;;;;;;;23.70;13.90;;;;;;;-3.92;82.33;100290.69;1783021;80;21108;-78
2022/11/19 04:40:08;;;;;;;27.10;14.60;;;;;;;-3.96;82.23;100297.87;1790387;79;21069;-75
2022/11/19 04:42:35;;;;;;;27.30;14.73;;;;;;;-4.01;81.96;100296.06;1783133;79;21539;-74
2022/11/19 04:45:02;;;;;;;26.47;14.47;;;;;;;-4.01;82.50;100301.18;1786348;79;21432;-75
2022/11/19 04:47:29;;;;;;;25.37;14.73;;;;;;;-4.00;82.66;100301.19;1769293;79;21027;-75
2022/11/19 04:49:57;;;;;;;22.97;12.50;;;;;;;-3.99;82.44;100304.61;1774994;79;21903;-74
2022/11/19 04:52:23;;;;;;;26.73;14.00;;;;;;;-4.01;82.23;100300.76;1777780;79;20932;-75
2022/11/19 04:54:50;;;;;;;22.90;12.83;;;;;;;-4.07;82.09;100296.80;1779596;79;21415;-76
2022/11/19 04:57:17;;;;;;;22.67;12.70;;;;;;;-4.09;82.32;100294.20;1782651;80;21485;-75
2022/11/19 04:59:44;;;;;;;27.47;14.20;;;;;;;-4.10;82.15;100290.31;1783183;79;21540;-75
2022/11/19 05:02:12;;;;;;;25.97;13.93;;;;;;;-4.15;82.18;100291.52;1782838;79;21767;-75
2022/11/19 05:04:39;;;;;;;27.30;15.20;;;;;;;-4.17;82.20;100299.57;1782920;79;21021;-75
2022/11/19 05:07:06;;;;;;;28.17;14.60;;;;;;;-4.18;82.46;100300.41;1769990;79;21023;-75
2022/11/19 05:09:33;;;;;;;27.23;15.57;;;;;;;-4.13;82.70;100310.73;1779919;79;20982;-75
2022/11/19 05:12:00;;;;;;;25.47;14.87;;;;;;;-4.13;82.66;100297.54;1782340;79;22123;-77
2022/11/19 05:14:27;;;;;;;24.80;14.60;;;;;;;-4.13;82.59;100299.20;1783045;79;21090;-75
2022/11/19 05:16:54;;;;;;;26.77;15.07;;;;;;;-4.13;82.41;100300.09;1782653;79;21054;-75
2022/11/19 05:19:20;;;;;;;24.40;13.43;;;;;;;-4.19;82.05;100297.81;1784613;80;21428;-75
2022/11/19 05:21:47;;;;;;;27.13;14.33;;;;;;;-4.25;82.12;100303.66;1784671;80;21011;-75
2022/11/19 05:24:15;;;;;;;28.73;14.90;;;;;;;-4.23;82.52;100303.71;1769020;80;21482;-75
2022/11/19 05:26:42;;;;;;;27.23;14.23;;;;;;;-4.22;82.72;100309.27;1769732;80;21116;-74
2022/11/19 05:29:09;;;;;;;26.30;14.43;;;;;;;-4.24;82.62;100309.22;1781192;80;21461;-75
2022/11/19 05:31:36;;;;;;;27.47;14.50;;;;;;;-4.23;82.89;100307.55;1768637;80;21038;-75
2022/11/19 05:34:03;;;;;;;25.20;13.57;;;;;;;-4.28;82.66;100307.02;1759837;81;22059;-75
2022/11/19 05:36:30;;;;;;;28.73;15.80;;;;;;;-4.30;82.55;100303.55;1753542;81;21047;-75
2022/11/19 05:38:57;;;;;;;24.47;14.33;;;;;;;-4.34;82.45;100303.48;1751689;81;21941;-75
2022/11/19 05:41:24;;;;;;;24.83;14.03;;;;;;;-4.38;82.27;100306.39;1755177;81;21019;-75
2022/11/19 05:43:51;;;;;;;25.20;13.93;;;;;;;-4.38;82.70;100320.47;1755389;81;21031;-76
2022/11/19 05:46:18;;;;;;;25.63;14.30;;;;;;;-4.37;82.76;100314.92;1755302;81;20996;-75
2022/11/19 05:48:45;;;;;;;22.43;13.40;;;;;;;-4.42;82.70;100314.81;1755558;81;21039;-75
2022/11/19 05:51:15;;;;;;;25.77;14.93;;;;;;;-4.44;82.35;100314.33;1753538;81;21907;-75
2022/11/19 05:53:42;;;;;;;25.80;14.27;;;;;;;-4.42;82.98;100313.53;1751930;81;21027;-75
2022/11/19 05:56:09;;;;;;;27.57;14.77;;;;;;;-4.39;83.17;100317.86;1755473;81;21086;-77
2022/11/19 05:58:36;;;;;;;25.07;14.00;;;;;;;-4.41;82.92;100320.38;1760337;81;21001;-76
2022/11/19 06:01:04;;;;;;;26.40;15.37;;;;;;;-4.44;82.84;100322.86;1756494;81;21083;-75
2022/11/19 06:03:31;;;;;;;28.20;13.47;;;;;;;-4.41;83.21;100325.91;1742094;81;21134;-75
2022/11/19 06:05:58;;;;;;;25.27;14.17;;;;;;;-4.38;83.55;100323.41;1753825;81;20984;-75
2022/11/19 06:08:25;;;;;;;26.13;13.47;;;;;;;-4.36;83.36;100325.59;1758103;81;21497;-76
2022/11/19 06:10:52;;;;;;;23.30;13.57;;;;;;;-4.37;83.06;100327.30;1761046;80;21007;-75
2022/11/19 06:13:19;;;;;;;22.33;13.17;;;;;;;-4.37;83.29;100329.86;1755124;81;21026;-77
2022/11/19 06:15:46;;;;;;;25.77;13.87;;;;;;;-4.33;83.17;100331.64;1755521;81;21189;-75
2022/11/19 06:18:13;;;;;;;25.87;13.97;;;;;;;-4.28;83.30;100336.45;1753055;81;21027;-76
2022/11/19 06:20:40;;;;;;;22.60;13.33;;;;;;;-4.29;82.98;100341.55;1761527;81;20990;-76
2022/11/19 06:23:07;;;;;;;27.93;13.83;;;;;;;-4.30;82.74;100339.80;1757788;81;21547;-75
2022/11/19 06:25:34;;;;;;;25.27;13.70;;;;;;;-4.36;82.40;100340.95;1755995;81;21030;-74
2022/11/19 06:28:01;;;;;;;25.43;14.00;;;;;;;-4.37;82.67;100351.61;1773768;80;21142;-74
2022/11/19 06:30:29;;;;;;;27.80;15.60;;;;;;;-4.38;82.54;100349.89;1757310;80;22010;-74
2022/11/19 06:32:56;;;;;;;25.67;13.20;;;;;;;-4.40;82.59;100358.36;1757190;80;21043;-75
2022/11/19 06:35:23;;;;;;;24.90;13.47;;;;;;;-4.39;82.60;100362.22;1762820;80;21556;-74
2022/11/19 06:37:51;;;;;;;25.90;13.57;;;;;;;-4.41;82.47;100363.86;1766297;80;21077;-76
2022/11/19 06:40:19;;;;;;;25.43;13.87;;;;;;;-4.43;82.42;100355.31;1767437;80;21106;-75
2022/11/19 06:42:47;;;;;;;27.80;15.10;;;;;;;-4.45;82.41;100351.84;1757342;80;21304;-74
2022/11/19 06:45:14;;;;;;;26.80;13.93;;;;;;;-4.44;82.65;100351.00;1768244;80;21588;-74
2022/11/19 06:47:48;;;;;;;25.67;14.53;;;;;;;-4.39;82.92;100352.41;1757369;80;21044;-77
2022/11/19 06:50:15;;;;;;;25.40;14.57;;;;;;;-4.34;82.87;100349.53;1766147;80;21672;-77
2022/11/19 06:52:42;;;;;;;27.90;14.70;;;;;;;-4.34;82.73;100348.25;1768180;80;21923;-74
2022/11/19 06:55:09;;;;;;;27.57;13.47;;;;;;;-4.32;82.57;100352.58;1766720;80;21031;-74
2022/11/19 06:57:36;;;;;;;29.03;14.80;;;;;;;-4.36;82.50;100346.92;1764060;80;21535;-74
2022/11/19 07:00:05;;;;;;;27.20;14.43;;;;;;;-4.33;82.41;100350.83;1765099;80;21050;-74
2022/11/19 07:02:32;;;;;;;29.03;14.67;;;;;;;-4.39;82.14;100355.81;1760934;80;21035;-74
2022/11/19 07:04:59;;;;;;;25.87;14.63;;;;;;;-4.42;82.13;100354.89;1763222;80;21116;-74
2022/11/19 07:07:26;;;;;;;26.43;15.00;;;;;;;-4.46;82.33;100359.09;1766522;80;21020;-75
2022/11/19 07:09:53;;;;;;;24.70;14.73;;;;;;;-4.43;82.74;100357.88;1760951;80;21043;-74
2022/11/19 07:12:20;;;;;;;27.90;14.17;;;;;;;-4.36;83.32;100364.84;1766935;80;21083;-73
2022/11/19 07:14:47;;;;;;;27.83;14.77;;;;;;;-4.31;83.08;100361.97;1758473;80;21032;-74
2022/11/19 07:17:14;;;;;;;21.87;13.67;;;;;;;-4.26;83.16;100366.78;1761277;80;21163;-74
2022/11/19 07:19:41;;;;;;;22.33;13.53;;;;;;;-4.17;83.43;100369.09;1751519;80;21020;-74
2022/11/19 07:22:08;;;;;;;26.13;13.83;;;;;;;-4.13;83.37;100366.65;1771624;80;21076;-74
2022/11/19 07:24:35;;;;;;;27.83;13.20;;;;;;;-4.08;83.43;100366.73;1753056;80;22089;-74
2022/11/19 07:27:02;;;;;;;331.27;112.90;;;;;;;-4.02;83.62;100366.00;1756368;81;21947;-74
2022/11/19 07:29:29;;;;;;;392.77;140.60;;;;;;;-3.92;84.14;100364.95;1756357;80;21114;-74
2022/11/19 07:31:56;;;;;;;426.00;172.97;;;;;;;-3.81;84.13;100362.19;1745147;81;22225;-74
2022/11/19 07:34:23;;;;;;;473.93;194.50;;;;;;;-3.73;84.31;100356.38;1731393;81;21025;-74
2022/11/19 07:36:50;;;;;;;419.53;163.53;;;;;;;-3.59;84.74;100351.09;1731424;81;21099;-74
2022/11/19 07:39:17;;;;;;;340.00;129.27;;;;;;;-3.44;84.94;100353.08;1730896;81;21072;-74
2022/11/19 07:44:32;;;;;;;356.07;125.33;;;;;;;-3.14;84.95;100351.49;1727046;81;21423;-73
2022/11/19 07:46:59;;;;;;;307.80;103.73;;;;;;;-3.04;85.04;100349.97;1730568;81;21070;-73
2022/11/19 07:49:25;;;;;;;125.50;47.00;;;;;;;-2.93;85.03;100349.73;1736241;81;21040;-74
2022/11/19 07:51:53;;;;;;;154.63;62.87;;;;;;;-2.82;85.12;100352.05;1731272;81;21781;-73
2022/11/19 07:54:20;;;;;;;44.80;21.93;;;;;;;-2.77;84.87;100350.83;1740850;81;21133;-73
2022/11/19 07:56:47;;;;;;;47.57;23.50;;;;;;;-2.75;84.34;100351.30;1724628;81;21047;-74
2022/11/19 07:59:14;;;;;;;94.27;45.33;;;;;;;-2.75;84.69;100351.30;1727570;81;21016;-74
2022/11/19 08:01:42;;;;;;;40.07;21.73;;;;;;;-2.65;84.87;100344.63;1748170;81;20948;-73
2022/11/19 08:04:09;;;;;;;34.70;19.27;;;;;;;-2.57;84.72;100345.61;1733457;81;21016;-75
2022/11/19 08:06:36;;;;;;;31.37;18.73;;;;;;;-2.50;84.70;100346.13;1737031;81;21478;-77
2022/11/19 08:09:04;;;;;;;32.07;18.13;;;;;;;-2.50;84.25;100349.97;1729943;81;21012;-80
2022/11/19 08:11:31;;;;;;;33.70;17.50;;;;;;;-2.50;84.35;100349.97;1735572;81;21032;-79
2022/11/19 08:14:01;;;;;;;34.57;19.57;;;;;;;-2.42;84.62;100344.96;1739748;81;21059;-81
2022/11/19 08:19:15;;;;;;;33.03;17.27;;;;;;;-2.31;84.62;100354.96;1722408;81;21211;-72
2022/11/19 08:21:45;;;;;;;34.95;18.32;;;;;;;-2.33;84.30;100355.78;1733714;81;20933;-74
2022/11/19 08:24:15;;;;;;;31.87;18.98;;;;;;;-2.35;84.24;100353.63;1725281;81;20940;-72
2022/11/19 08:26:43;;;;;;;33.05;18.42;;;;;;;-2.32;84.63;100360.95;1734549;81;21079;-73
2022/11/19 08:29:12;;;;;;;37.33;19.60;;;;;;;-2.25;84.67;100356.75;1725809;81;21024;-73
2022/11/19 08:31:40;;;;;;;32.23;19.03;;;;;;;-2.18;85.04;100358.58;1739668;81;21161;-76
2022/11/19 08:34:07;;;;;;;37.27;18.40;;;;;;;-2.06;84.85;100354.88;1724676;81;21075;-74
2022/11/19 08:36:35;;;;;;;32.70;17.63;;;;;;;-1.94;85.29;100355.48;1730923;81;21434;-76
2022/11/19 08:39:03;;;;;;;35.77;18.90;;;;;;;-1.75;85.23;100358.27;1736897;81;22055;-74
2022/11/19 08:44:16;;;;;;;33.90;18.23;;;;;;;-1.40;85.19;100363.39;1732525;81;21608;-74
2022/11/19 08:46:44;;;;;;;32.80;17.53;;;;;;;-1.22;85.17;100361.46;1734217;81;21016;-75
2022/11/19 08:49:11;;;;;;;29.83;17.23;;;;;;;-1.09;84.73;100362.42;1756033;81;21015;-74
2022/11/19 08:51:38;;;;;;;29.73;18.03;;;;;;;-0.95;84.49;100363.41;1754658;80;20994;-73
2022/11/19 08:54:05;;;;;;;32.93;18.23;;;;;;;-0.81;84.50;100366.53;1775632;79;21026;-72
2022/11/19 08:56:32;;;;;;;32.43;19.00;;;;;;;-0.73;84.00;100372.61;1762938;80;21110;-74
2022/11/19 08:59:00;;;;;;;31.00;18.20;;;;;;;-0.59;83.94;100376.16;1786722;80;21058;-73
2022/11/19 09:01:27;;;;;;;30.33;17.90;;;;;;;-0.48;83.68;100372.38;1785962;79;21073;-77
2022/11/19 09:03:54;;;;;;;32.17;18.20;;;;;;;-0.38;83.43;100378.48;1738764;81;21806;-73
2022/11/19 09:06:22;;;;;;;29.73;17.67;;;;;;;-0.31;83.16;100375.07;1761953;78;21015;-74
2022/11/19 09:08:49;;;;;;;30.40;18.00;;;;;;;-0.22;83.12;100382.88;1749897;81;21210;-74
2022/11/19 09:11:19;;;;;;;34.37;18.67;;;;;;;-0.07;83.23;100380.81;1761672;81;21486;-77
2022/11/19 09:13:45;;;;;;;29.43;18.93;;;;;;;0.11;82.98;100379.64;1764210;79;21472;-74
2022/11/19 09:16:12;;;;;;;31.37;18.03;;;;;;;0.20;82.75;100374.52;1757923;81;21020;-75
2022/11/19 09:18:41;;;;;;;32.93;17.83;;;;;;;0.34;82.55;100379.73;1754114;81;21083;-73
2022/11/19 09:21:10;;;;;;;29.13;17.13;;;;;;;0.41;82.32;100372.45;1756278;80;21142;-74
2022/11/19 09:23:38;;;;;;;29.27;16.73;;;;;;;0.58;82.49;100374.22;1750455;81;21055;-73
2022/11/19 09:26:16;;;;;;;28.40;17.50;;;;;;;0.79;82.18;100372.15;1756567;81;21619;-73
2022/11/19 09:28:44;;;;;;;28.17;17.00;;;;;;;0.88;81.69;100372.16;1759515;81;21075;-73
2022/11/19 09:31:15;;;;;;;26.97;17.33;;;;;;;0.93;81.59;100372.17;1774667;80;21011;-71
2022/11/19 09:33:48;;;;;;;27.87;16.80;;;;;;;1.00;81.16;100372.59;1732924;81;21097;-74
2022/11/19 09:36:17;;;;;;;26.27;15.80;;;;;;;1.11;80.93;100370.48;1777853;80;21019;-72
2022/11/19 09:38:44;;;;;;;24.53;15.23;;;;;;;1.22;80.74;100372.19;1764120;79;21081;-72
2022/11/19 09:41:37;;;;;;;25.17;16.10;;;;;;;1.24;80.32;100370.05;1764704;80;21027;-74
2022/11/19 09:44:54;;;;;;;24.83;16.80;;;;;;;1.22;80.00;100366.63;1763543;81;21024;-71
2022/11/19 09:47:41;;;;;;;22.67;15.17;;;;;;;1.26;79.58;100367.05;1763670;79;21942;-76
2022/11/19 09:50:17;;;;;;;24.67;15.27;;;;;;;1.36;79.36;100371.80;1764926;81;21015;-74
2022/11/19 09:53:10;;;;;;;22.20;14.03;;;;;;;1.49;79.34;100365.73;1763195;79;21296;-76
2022/11/19 09:55:44;;;;;;;24.03;15.63;;;;;;;1.53;78.69;100364.89;1765030;81;21399;-77
2022/11/19 09:58:33;;;;;;;21.20;14.03;;;;;;;1.68;78.64;100367.02;1766299;81;21035;-75
2022/11/19 10:01:00;;;;;;;23.03;15.20;;;;;;;1.66;77.88;100359.27;1764782;79;21978;-78
2022/11/19 10:03:27;;;;;;;22.03;14.10;;;;;;;1.75;77.75;100359.27;1765704;81;21031;-77
2022/11/19 10:06:02;;;;;;;19.60;13.80;;;;;;;1.81;77.33;100357.54;1763356;81;21023;-74
2022/11/19 10:08:46;;;;;;;21.77;14.33;;;;;;;1.76;76.45;100356.25;1745109;81;21451;-72
2022/11/19 10:11:34;;;;;;;18.57;13.60;;;;;;;1.72;75.69;100359.28;1764724;81;21055;-72
2022/11/19 10:14:38;;;;;;;19.60;13.73;;;;;;;1.59;75.69;100355.42;1766413;80;21090;-76
2022/11/19 10:17:19;;;;;;;19.77;13.80;;;;;;;1.74;76.00;100354.95;1763488;80;21305;-76
2022/11/19 10:20:10;;;;;;;18.57;13.47;;;;;;;1.97;76.07;100360.09;1764847;81;21040;-77
2022/11/19 10:23:04;;;;;;;20.50;13.20;;;;;;;2.05;75.86;100363.95;1765520;81;21877;-72
2022/11/19 10:25:39;;;;;;;18.93;13.07;;;;;;;2.13;75.22;100353.56;1764045;81;21528;-74
2022/11/19 10:28:16;;;;;;;18.67;13.07;;;;;;;2.24;74.62;100366.02;1764656;80;22889;-75
2022/11/19 10:30:54;;;;;;;18.07;12.43;;;;;;;2.33;74.21;100354.36;1764128;80;20939;-76
2022/11/19 10:33:32;;;;;;;19.93;13.00;;;;;;;2.49;73.54;100342.20;1764186;80;21022;-73
2022/11/19 10:36:22;;;;;;;18.63;13.00;;;;;;;2.64;73.56;100347.30;1763743;81;21030;-74
2022/11/19 10:39:06;;;;;;;16.35;11.85;;;;;;;2.84;73.39;100339.86;1766353;81;21655;-76
2022/11/19 10:41:38;;;;;;;17.07;12.50;;;;;;;3.11;73.20;100333.19;1759022;81;21961;-75
2022/11/19 10:44:42;;;;;;;16.30;11.60;;;;;;;3.32;72.71;100331.29;1763950;79;21659;-80
2022/11/19 10:47:21;;;;;;;16.57;11.73;;;;;;;3.48;72.37;100329.43;1727590;80;21051;-76
2022/11/19 10:49:53;;;;;;;14.70;10.80;;;;;;;3.53;71.29;100325.92;1766525;80;20939;-74
2022/11/19 10:52:28;;;;;;;16.10;10.43;;;;;;;3.64;70.90;100324.53;1763297;79;21294;-76
2022/11/19 10:55:03;;;;;;;12.40;8.97;;;;;;;3.62;70.00;100322.82;1764986;81;21141;-76
2022/11/19 10:57:32;;;;;;;13.87;10.23;;;;;;;3.58;69.36;100315.52;1766034;81;21619;-75
2022/11/19 11:00:00;;;;;;;15.27;10.93;;;;;;;3.69;69.34;100319.30;1764796;79;21022;-75
2022/11/19 11:02:47;;;;;;;16.70;11.83;;;;;;;3.90;69.52;100309.98;1763083;81;20939;-74
2022/11/19 11:05:17;;;;;;;15.57;10.87;;;;;;;4.03;68.78;100311.56;1763431;81;21023;-74
2022/11/19 11:07:52;;;;;;;15.78;11.75;;;;;;;4.12;68.25;100300.66;1765308;81;26452;-74
2022/11/19 11:10:43;;;;;;;15.10;10.93;;;;;;;4.50;67.53;100298.02;1765902;81;20916;-73
2022/11/19 11:16:08;;;;;;;15.60;11.63;;;;;;;5.22;66.37;100291.72;1769472;81;20204;-75
2022/11/19 11:18:40;;;;;;;17.90;12.27;;;;;;;5.40;65.09;100296.58;1769929;81;21248;-73
2022/11/19 11:21:08;;;;;;;;;;;;;;;5.17;64.02;100288.34;1766947;80;21096;-78
2022/11/19 11:23:49;;;;;;;12.10;9.83;;;;;;;4.91;62.31;100289.62;1763251;81;20472;-76
2022/11/19 11:26:26;;;;;;;15.87;11.63;;;;;;;4.87;62.96;100291.83;1763692;80;21038;-74
2022/11/19 11:29:12;;;;;;;13.60;10.77;;;;;;;5.04;63.04;100288.52;1763678;80;21046;-74
2022/11/19 11:31:46;;;;;;;14.83;11.60;;;;;;;5.13;62.73;100281.90;1709540;83;21050;-76
2022/11/19 11:34:33;;;;;;;14.47;11.13;;;;;;;5.23;62.84;100282.58;1714593;82;21147;-75
2022/11/19 11:37:04;;;;;;;15.40;11.07;;;;;;;5.33;63.65;100277.66;1718260;82;21006;-74
2022/11/19 11:39:37;;;;;;;14.43;10.03;;;;;;;5.00;61.96;100275.18;1711975;82;21026;-74
2022/11/19 11:42:11;;;;;;;14.27;9.63;;;;;;;4.64;61.68;100277.91;1709811;83;21000;-77
2022/11/19 11:44:50;;;;;;;13.80;9.93;;;;;;;4.37;61.21;100280.45;1767576;80;20986;-77
2022/11/19 11:47:29;;;;;;;13.53;9.83;;;;;;;4.16;61.23;100275.97;1761699;80;21127;-76
2022/11/19 11:50:20;;;;;;;14.28;9.50;;;;;;;4.19;61.85;100268.59;1756306;81;20989;-74
2022/11/19 11:52:50;;;;;;;;;;;;;;;4.23;61.78;100265.91;1760276;80;21026;-79
2022/11/19 11:55:28;;;;;;;14.43;10.17;;;;;;;4.24;61.12;100262.46;1763937;81;20154;-75